createdAt,value
2018-02-06T00:00:46.742Z,99.99
2018-02-06T00:01:46.739Z,99.99
2018-02-06T00:02:46.448Z,99.99
2018-02-06T00:03:46.681Z,99.99
2018-02-06T00:04:46.661Z,99.99
2018-02-06T00:05:46.642Z,99.99
2018-02-06T00:06:46.633Z,99.99
2018-02-06T00:07:46.605Z,99.99
2018-02-06T00:08:46.334Z,99.99
2018-02-06T00:09:46.575Z,99.99
2018-02-06T00:10:46.297Z,99.99
2018-02-06T00:11:46.530Z,99.99
2018-02-06T00:12:46.516Z,99.99
2018-02-06T00:13:46.493Z,99.99
2018-02-06T00:14:46.222Z,99.99
2018-02-06T00:15:46.205Z,99.99
2018-02-06T00:16:46.435Z,99.99
2018-02-06T00:17:46.417Z,99.99
2018-02-06T00:18:46.398Z,99.99
2018-02-06T00:19:46.133Z,99.99
2018-02-06T00:20:46.363Z,99.99
2018-02-06T00:21:46.344Z,99.99
2018-02-06T00:22:46.320Z,99.99
2018-02-06T00:23:46.303Z,99.99
2018-02-06T00:24:46.289Z,99.99
2018-02-06T00:25:46.267Z,99.99
2018-02-06T00:26:46.250Z,99.99
2018-02-06T00:27:46.289Z,99.99
2018-02-06T00:28:46.209Z,99.99
2018-02-06T00:29:46.203Z,99.99
2018-02-06T00:30:46.176Z,99.99
2018-02-06T00:31:46.154Z,99.99
2018-02-06T00:32:46.133Z,99.99
2018-02-06T00:33:46.113Z,99.99
2018-02-06T00:34:46.100Z,99.99
2018-02-06T00:35:45.823Z,99.99
2018-02-06T00:36:46.057Z,99.99
2018-02-06T00:37:46.039Z,99.99
2018-02-06T00:38:46.019Z,99.99
2018-02-06T00:39:46.032Z,99.99
2018-02-06T00:40:45.726Z,99.99
2018-02-06T00:41:45.960Z,99.99
2018-02-06T00:42:45.942Z,99.99
2018-02-06T00:43:45.925Z,99.99
2018-02-06T00:44:45.903Z,99.99
2018-02-06T00:45:45.888Z,99.99
2018-02-06T00:46:45.876Z,99.99
2018-02-06T00:47:45.846Z,99.99
2018-02-06T00:48:45.828Z,99.99
2018-02-06T00:49:45.557Z,99.99
2018-02-06T00:50:45.793Z,99.99
2018-02-06T00:51:45.516Z,99.99
2018-02-06T00:52:45.754Z,99.99
2018-02-06T00:53:45.732Z,99.99
2018-02-06T00:54:45.712Z,99.99
2018-02-06T00:55:45.692Z,99.99
2018-02-06T00:56:45.679Z,99.99
2018-02-06T00:57:45.663Z,99.99
2018-02-06T00:58:45.638Z,99.99
2018-02-06T00:59:45.616Z,99.99
2018-02-06T01:00:45.347Z,99.99
2018-02-06T01:01:45.582Z,99.99
2018-02-06T01:02:45.561Z,99.99
2018-02-06T01:03:45.542Z,99.99
2018-02-06T01:04:45.522Z,99.99
2018-02-06T01:05:45.533Z,99.99
2018-02-06T01:06:45.236Z,99.99
2018-02-06T01:07:45.465Z,99.99
2018-02-06T01:08:45.447Z,99.99
2018-02-06T01:09:45.175Z,99.99
2018-02-06T01:10:45.409Z,99.99
2018-02-06T01:11:45.393Z,99.99
2018-02-06T01:12:45.380Z,99.99
2018-02-06T01:13:45.349Z,99.99
2018-02-06T01:14:45.329Z,99.99
2018-02-06T01:15:45.312Z,99.99
2018-02-06T01:16:45.295Z,99.99
2018-02-06T01:17:45.020Z,99.99
2018-02-06T01:18:45.257Z,99.99
2018-02-06T01:19:44.983Z,99.99
2018-02-06T01:20:45.218Z,99.99
2018-02-06T01:21:45.197Z,99.99
2018-02-06T01:22:45.179Z,99.99
2018-02-06T01:23:45.159Z,99.99
2018-02-06T01:24:45.147Z,99.99
2018-02-06T01:25:45.122Z,99.99
2018-02-06T01:26:45.163Z,99.99
2018-02-06T01:27:45.083Z,99.99
2018-02-06T01:28:45.065Z,99.99
2018-02-06T01:29:45.044Z,99.99
2018-02-06T01:30:44.775Z,99.99
2018-02-06T01:31:44.755Z,99.99
2018-02-06T01:32:44.737Z,99.99
2018-02-06T01:33:44.968Z,99.99
2018-02-06T01:34:44.983Z,99.99
2018-02-06T01:35:44.929Z,99.99
2018-02-06T01:36:44.909Z,99.99
2018-02-06T01:37:44.891Z,99.99
2018-02-06T01:38:44.872Z,99.99
2018-02-06T01:39:44.854Z,99.99
2018-02-06T01:40:44.832Z,99.99
2018-02-06T01:41:44.816Z,99.99
2018-02-06T01:42:44.798Z,99.99
2018-02-06T01:43:44.774Z,99.99
2018-02-06T01:44:44.756Z,99.99
2018-02-06T01:45:44.740Z,99.99
2018-02-06T01:46:44.717Z,99.99
2018-02-06T01:47:44.446Z,99.99
2018-02-06T01:48:44.680Z,99.99
2018-02-06T01:49:44.662Z,99.99
2018-02-06T01:50:44.643Z,99.99
2018-02-06T01:51:44.620Z,99.99
2018-02-06T01:52:44.351Z,99.99
2018-02-06T01:53:44.589Z,99.99
2018-02-06T01:54:44.571Z,99.99
2018-02-06T01:55:44.547Z,99.99
2018-02-06T01:56:44.275Z,99.99
2018-02-06T01:57:44.506Z,99.99
2018-02-06T01:58:44.234Z,99.99
2018-02-06T01:59:44.471Z,99.99
2018-02-06T02:00:44.452Z,99.99
2018-02-06T02:01:44.432Z,99.99
2018-02-06T02:02:44.409Z,99.99
2018-02-06T02:03:44.392Z,99.99
2018-02-06T02:04:44.371Z,99.99
2018-02-06T02:05:44.356Z,99.99
2018-02-06T02:06:44.338Z,99.99
2018-02-06T02:07:44.315Z,99.99
2018-02-06T02:08:44.295Z,99.99
2018-02-06T02:09:44.026Z,99.99
2018-02-06T02:10:44.258Z,99.99
2018-02-06T02:11:43.987Z,99.99
2018-02-06T02:12:44.269Z,99.99
2018-02-06T02:13:44.199Z,99.99
2018-02-06T02:14:44.179Z,99.99
2018-02-06T02:15:44.164Z,99.99
2018-02-06T02:16:44.141Z,99.99
2018-02-06T02:17:44.124Z,99.99
2018-02-06T02:18:44.109Z,99.99
2018-02-06T02:19:44.084Z,99.99
2018-02-06T02:20:44.066Z,99.99
2018-02-06T02:21:44.048Z,99.99
2018-02-06T02:22:44.034Z,99.99
2018-02-06T02:23:44.012Z,99.99
2018-02-06T02:24:43.991Z,99.99
2018-02-06T02:25:43.971Z,99.99
2018-02-06T02:26:43.952Z,99.99
2018-02-06T02:27:43.933Z,99.99
2018-02-06T02:28:43.914Z,99.99
2018-02-06T02:29:43.894Z,99.99
2018-02-06T02:30:43.876Z,99.99
2018-02-06T02:31:43.856Z,99.99
2018-02-06T02:32:43.835Z,99.99
2018-02-06T02:33:43.565Z,99.99
2018-02-06T02:34:43.544Z,99.99
2018-02-06T02:35:43.777Z,99.99
2018-02-06T02:36:43.766Z,99.99
2018-02-06T02:37:43.486Z,99.99
2018-02-06T02:38:43.719Z,99.99
2018-02-06T02:39:43.700Z,99.99
2018-02-06T02:40:43.681Z,99.99
2018-02-06T04:38:41.396Z,99.99
2018-02-06T04:39:41.375Z,99.99
2018-02-06T04:40:41.364Z,99.99
2018-02-06T04:41:41.337Z,99.99
2018-02-06T04:42:41.313Z,99.99
2018-02-06T04:43:41.317Z,99.99
2018-02-06T04:44:41.025Z,99.99
2018-02-06T04:45:41.256Z,99.99
2018-02-06T04:46:40.989Z,99.99
2018-02-06T04:47:40.965Z,99.99
2018-02-06T04:48:41.200Z,99.99
2018-02-06T04:49:41.175Z,99.99
2018-02-06T04:50:41.160Z,99.99
2018-02-06T04:51:41.143Z,99.99
2018-02-06T04:52:41.119Z,99.99
2018-02-06T04:53:40.856Z,99.99
2018-02-06T04:54:41.081Z,99.99
2018-02-06T04:55:40.809Z,99.99
2018-02-06T04:56:41.039Z,99.99
2018-02-06T04:57:41.058Z,99.99
2018-02-06T04:58:40.753Z,99.99
2018-02-06T04:59:40.983Z,99.99
2018-02-06T05:00:40.961Z,99.99
2018-02-06T05:01:40.947Z,99.99
2018-02-06T05:02:40.977Z,99.99
2018-02-06T05:03:40.905Z,99.99
2018-02-06T05:04:40.632Z,99.99
2018-02-06T05:05:40.866Z,99.99
2018-02-06T05:06:40.845Z,99.99
2018-02-06T05:07:40.823Z,99.99
2018-02-06T05:08:40.808Z,99.99
2018-02-06T05:09:40.785Z,99.99
2018-02-06T05:10:55.431Z,99.99
2018-02-06T05:11:40.748Z,99.99
2018-02-06T05:12:40.726Z,99.99
2018-02-06T05:13:40.713Z,99.99
2018-02-06T05:14:40.436Z,99.99
2018-02-06T05:15:40.418Z,99.99
2018-02-06T05:16:40.648Z,99.99
2018-02-06T05:17:40.630Z,99.99
2018-02-06T05:18:40.358Z,99.99
2018-02-06T05:19:40.588Z,99.99
2018-02-06T05:20:40.570Z,99.99
2018-02-06T05:21:40.551Z,99.99
2018-02-06T05:22:40.536Z,99.99
2018-02-06T05:23:40.515Z,99.99
2018-02-06T05:24:40.500Z,99.99
2018-02-06T05:25:40.475Z,99.99
2018-02-06T05:26:40.457Z,99.99
2018-02-06T05:27:40.433Z,99.99
2018-02-06T05:28:40.416Z,99.99
2018-02-06T05:29:40.396Z,99.99
2018-02-06T05:30:40.386Z,99.99
2018-02-06T05:31:40.355Z,99.99
2018-02-06T05:32:40.084Z,99.99
2018-02-06T05:33:40.316Z,99.99
2018-02-06T05:34:40.295Z,99.99
2018-02-06T05:35:40.029Z,99.99
2018-02-06T05:36:40.257Z,99.99
2018-02-06T05:37:40.246Z,99.99
2018-02-06T05:38:40.217Z,99.99
2018-02-06T05:39:40.208Z,99.99
2018-02-06T05:40:40.178Z,99.99
2018-02-06T05:41:40.163Z,99.99
2018-02-06T05:42:40.139Z,99.99
2018-02-06T05:43:39.869Z,99.99
2018-02-06T05:44:39.849Z,99.99
2018-02-06T05:45:40.125Z,99.99
2018-02-06T05:46:40.091Z,99.99
2018-02-06T05:47:40.043Z,99.99
2018-02-06T05:48:40.024Z,99.99
2018-02-06T05:49:40.001Z,99.99
2018-02-06T05:50:40.012Z,99.99
2018-02-06T05:51:39.710Z,99.99
2018-02-06T05:52:39.693Z,99.99
2018-02-06T05:53:39.927Z,99.99
2018-02-06T05:54:39.905Z,99.99
2018-02-06T05:55:39.633Z,99.99
2018-02-06T05:56:39.868Z,99.99
2018-02-06T05:57:39.594Z,99.99
2018-02-06T05:58:39.825Z,99.99
2018-02-06T05:59:39.807Z,99.99
2018-02-06T06:00:39.787Z,99.99
2018-02-06T06:01:39.514Z,99.99
2018-02-06T06:02:39.747Z,99.99
2018-02-06T06:03:39.475Z,99.99
2018-02-06T06:04:39.713Z,99.99
2018-02-06T06:05:39.435Z,99.99
2018-02-06T06:06:39.670Z,99.99
2018-02-06T06:07:39.651Z,99.99
2018-02-06T06:08:39.630Z,99.99
2018-02-06T06:09:39.612Z,99.99
2018-02-06T06:10:39.593Z,99.99
2018-02-06T06:11:39.569Z,99.99
2018-02-06T06:12:39.553Z,99.99
2018-02-06T06:13:39.279Z,99.99
2018-02-06T06:14:39.260Z,99.99
2018-02-06T06:15:39.490Z,99.99
2018-02-06T06:16:39.473Z,99.99
2018-02-06T06:17:39.451Z,99.99
2018-02-06T06:18:39.433Z,99.99
2018-02-06T06:19:39.413Z,99.99
2018-02-06T06:20:39.405Z,99.99
2018-02-06T06:21:39.381Z,99.99
2018-02-06T06:22:39.355Z,99.99
2018-02-06T06:23:54.005Z,99.99
2018-02-06T06:24:39.317Z,99.99
2018-02-06T06:25:39.298Z,99.99
2018-02-06T06:26:39.277Z,99.99
2018-02-06T06:27:39.260Z,99.99
2018-02-06T06:28:38.984Z,99.99
2018-02-06T06:29:38.964Z,99.99
2018-02-06T06:30:39.196Z,99.99
2018-02-06T06:31:39.183Z,99.99
2018-02-06T06:32:38.908Z,99.99
2018-02-06T06:33:39.140Z,99.99
2018-02-06T06:34:39.120Z,99.99
2018-02-06T06:35:39.097Z,99.99
2018-02-06T06:36:39.085Z,99.99
2018-02-06T06:37:38.805Z,99.99
2018-02-06T06:38:39.045Z,99.99
2018-02-06T06:39:39.034Z,99.99
2018-02-06T06:40:39.003Z,99.99
2018-02-06T06:41:38.983Z,99.99
2018-02-06T06:42:38.967Z,99.99
2018-02-06T06:43:38.941Z,99.99
2018-02-06T06:44:38.670Z,99.99
2018-02-06T06:45:38.906Z,99.99
2018-02-06T06:46:53.547Z,99.99
2018-02-06T06:47:38.869Z,99.99
2018-02-06T06:48:38.594Z,99.99
2018-02-06T06:49:38.824Z,99.99
2018-02-06T06:50:38.809Z,99.99
2018-02-06T06:51:38.790Z,99.99
2018-02-06T06:52:38.513Z,99.99
2018-02-06T06:53:38.745Z,99.99
2018-02-06T06:54:38.726Z,99.99
2018-02-06T06:55:38.704Z,99.99
2018-02-06T06:56:38.691Z,99.99
2018-02-06T06:57:38.668Z,99.99
2018-02-06T06:58:38.649Z,99.99
2018-02-06T06:59:38.627Z,99.99
2018-02-06T07:00:38.609Z,99.99
2018-02-06T07:02:38.574Z,99.99
2018-02-06T07:03:38.299Z,99.99
2018-02-06T07:04:38.278Z,99.99
2018-02-06T07:05:38.514Z,99.99
2018-02-06T07:06:38.493Z,99.99
2018-02-06T07:07:38.221Z,99.99
2018-02-06T07:08:38.453Z,99.99
2018-02-06T07:09:38.435Z,99.99
2018-02-06T07:10:38.163Z,99.99
2018-02-06T07:11:38.141Z,99.99
2018-02-06T07:12:38.140Z,99.99
2018-02-06T07:13:38.355Z,99.99
2018-02-06T07:14:38.085Z,99.99
2018-02-06T07:15:38.064Z,99.99
2018-02-06T07:16:38.046Z,99.99
2018-02-06T07:17:38.033Z,99.99
2018-02-06T07:18:38.261Z,99.99
2018-02-06T07:19:38.246Z,99.99
2018-02-06T07:20:37.968Z,99.99
2018-02-06T07:21:38.212Z,99.99
2018-02-06T07:22:37.931Z,99.99
2018-02-06T07:23:38.167Z,99.99
2018-02-06T07:24:37.893Z,99.99
2018-02-06T07:25:38.126Z,99.99
2018-02-06T07:26:38.114Z,99.99
2018-02-06T07:27:38.102Z,99.99
2018-02-06T07:28:38.081Z,99.99
2018-02-06T07:29:38.056Z,99.99
2018-02-06T07:30:38.035Z,99.99
2018-02-06T07:31:38.020Z,99.99
2018-02-06T07:32:38.001Z,99.99
2018-02-06T07:33:37.729Z,99.99
2018-02-06T07:34:37.963Z,99.99
2018-02-06T07:35:37.948Z,99.99
2018-02-06T07:36:37.928Z,99.99
2018-02-06T07:37:37.909Z,99.99
2018-02-06T07:38:37.891Z,99.99
2018-02-06T07:39:37.874Z,99.99
2018-02-06T07:40:37.855Z,99.99
2018-02-06T07:41:37.836Z,99.88
2018-02-06T07:42:37.823Z,99.7
2018-02-06T07:43:52.471Z,99.99
2018-02-06T07:44:37.785Z,99.88
2018-02-06T07:45:37.514Z,99.6
2018-02-06T07:46:37.756Z,99.88
2018-02-06T07:47:37.745Z,99.88
2018-02-06T07:49:37.698Z,99.7
2018-02-06T07:50:37.682Z,99.51
2018-02-06T07:51:37.663Z,99.13
2018-02-06T07:52:37.652Z,99.22
2018-02-06T07:53:37.631Z,99.51
2018-02-06T07:54:37.609Z,99.32
2018-02-06T07:55:37.599Z,99.51
2018-02-06T07:56:37.579Z,99.51
2018-02-06T07:57:37.557Z,99.7
2018-02-06T07:58:37.539Z,99.51
2018-02-06T07:59:37.524Z,99.22
2018-02-06T08:00:37.502Z,98.8
2018-02-06T08:01:37.486Z,98.85
2018-02-06T08:02:37.472Z,99.27
2018-02-06T08:04:37.434Z,98.9
2018-02-06T08:05:37.416Z,98.8
2018-02-06T08:06:37.403Z,98.61
2018-02-06T08:07:37.384Z,98.71
2018-02-06T08:08:37.364Z,98.8
2018-02-06T08:09:37.102Z,98.33
2018-02-06T08:10:37.329Z,98.61
2018-02-06T08:11:37.321Z,98.61
2018-02-06T08:12:37.295Z,98.8
2018-02-06T08:13:37.299Z,98.9
2018-02-06T08:14:37.257Z,98.43
2018-02-06T08:15:37.241Z,98.33
2018-02-06T08:16:37.228Z,98.24
2018-02-06T08:17:37.223Z,98.24
2018-02-06T08:18:37.188Z,97.86
2018-02-06T08:19:37.181Z,98.24
2018-02-06T08:20:37.160Z,97.67
2018-02-06T08:21:36.884Z,97.86
2018-02-06T08:22:36.875Z,98.24
2018-02-06T08:23:37.105Z,97.86
2018-02-06T08:24:37.088Z,97.48
2018-02-06T08:25:37.074Z,97.77
2018-02-06T08:26:37.060Z,97.96
2018-02-06T08:27:37.035Z,98.24
2018-02-06T08:28:37.017Z,98.24
2018-02-06T08:29:37.003Z,97.86
2018-02-06T08:30:36.982Z,97.48
2018-02-06T08:31:36.963Z,97.39
2018-02-06T08:32:36.944Z,97.48
2018-02-06T08:33:36.938Z,97.48
2018-02-06T08:34:36.909Z,97.48
2018-02-06T08:35:36.899Z,97.77
2018-02-06T08:36:36.880Z,97.67
2018-02-06T08:37:36.606Z,97.58
2018-02-06T08:38:36.852Z,97.39
2018-02-06T08:39:36.823Z,97.29
2018-02-06T08:40:36.812Z,97.39
2018-02-06T08:41:36.789Z,97.58
2018-02-06T08:42:51.435Z,97.39
2018-02-06T08:43:36.756Z,97.01
2018-02-06T08:44:51.401Z,96.78
2018-02-06T08:45:36.720Z,96.87
2018-02-06T08:46:36.702Z,96.73
2018-02-06T08:47:36.688Z,96.78
2018-02-06T08:48:36.667Z,96.73
2018-02-06T08:49:36.398Z,96.59
2018-02-06T08:50:36.635Z,97.15
2018-02-06T08:51:36.615Z,96.68
2018-02-06T08:52:36.348Z,96.59
2018-02-06T08:53:36.332Z,96.68
2018-02-06T08:54:36.563Z,97.34
2018-02-06T08:55:36.563Z,96.96
2018-02-06T08:56:36.590Z,96.78
2018-02-06T08:57:36.520Z,96.68
2018-02-06T08:58:36.497Z,96.87
2018-02-06T08:59:36.226Z,96.21
2018-02-06T09:00:36.210Z,96.11
2018-02-06T09:01:36.446Z,96.59
2018-02-06T09:02:36.429Z,96.02
2018-02-06T09:03:36.420Z,96.49
2018-02-06T09:04:36.395Z,96.21
2018-02-06T09:05:36.434Z,96.02
2018-02-06T09:06:36.370Z,95.64
2018-02-06T09:07:36.345Z,96.02
2018-02-06T09:08:36.074Z,96.02
2018-02-06T09:09:36.308Z,95.83
2018-02-06T09:10:36.296Z,95.83
2018-02-06T09:11:36.277Z,95.83
2018-02-06T09:12:36.259Z,95.73
2018-02-06T09:13:36.248Z,95.64
2018-02-06T09:14:36.229Z,95.4
2018-02-06T09:15:36.215Z,95.4
2018-02-06T09:16:36.265Z,94.93
2018-02-06T09:17:36.175Z,95.03
2018-02-06T09:18:36.161Z,94.84
2018-02-06T09:19:36.140Z,95.31
2018-02-06T09:20:36.130Z,94.37
2018-02-06T09:21:36.110Z,93.89
2018-02-06T09:22:36.094Z,93.89
2018-02-06T09:23:36.077Z,94.08
2018-02-06T09:24:35.808Z,93.7
2018-02-06T09:25:36.046Z,93.61
2018-02-06T09:26:36.034Z,93.8
2018-02-06T09:27:36.012Z,93.32
2018-02-06T09:28:35.744Z,92.94
2018-02-06T09:29:35.977Z,93.13
2018-02-06T09:31:35.949Z,92.1
2018-02-06T09:32:35.928Z,92.57
2018-02-06T09:33:35.920Z,91.53
2018-02-06T09:34:35.895Z,91.72
2018-02-06T09:35:35.627Z,91.53
2018-02-06T09:36:35.866Z,91.43
2018-02-06T09:37:35.849Z,91.34
2018-02-06T09:38:35.834Z,91.53
2018-02-06T09:39:35.857Z,91.43
2018-02-06T09:40:35.799Z,91.24
2018-02-06T09:41:35.792Z,91.15
2018-02-06T09:42:35.766Z,90.77
2018-02-06T09:43:35.751Z,90.49
2018-02-06T09:44:35.481Z,90.58
2018-02-06T09:45:35.716Z,90.96
2018-02-06T09:46:35.705Z,90.86
2018-02-06T09:47:35.687Z,91.15
2018-02-06T09:48:35.671Z,91.43
2018-02-06T09:49:35.654Z,90.68
2018-02-06T09:50:35.638Z,90.2
2018-02-06T09:51:35.620Z,90.3
2018-02-06T09:52:35.607Z,89.36
2018-02-06T09:53:35.585Z,88.88
2018-02-06T09:55:35.569Z,88.5
2018-02-06T09:56:35.540Z,88.22
2018-02-06T09:57:35.522Z,88.41
2018-02-06T09:58:35.571Z,88.22
2018-02-06T09:59:35.495Z,88.6
2018-02-06T10:00:35.475Z,88.5
2018-02-06T10:01:35.461Z,88.31
2018-02-06T10:02:35.451Z,88.6
2018-02-06T10:03:35.174Z,88.88
2018-02-06T10:04:35.448Z,88.41
2018-02-06T10:05:35.409Z,88.12
2018-02-06T10:06:35.383Z,88.12
2018-02-06T10:07:35.377Z,88.6
2018-02-06T10:08:35.660Z,87.93
2018-02-06T10:09:35.348Z,87.27
2018-02-06T10:10:35.063Z,87.46
2018-02-06T10:11:35.301Z,86.99
2018-02-06T10:12:35.283Z,87.55
2018-02-06T10:13:35.277Z,88.12
2018-02-06T10:14:35.259Z,87.93
2018-02-06T10:15:35.237Z,88.6
2018-02-06T10:16:34.966Z,88.22
2018-02-06T10:17:35.208Z,88.69
2018-02-06T10:18:35.188Z,88.22
2018-02-06T10:19:49.834Z,88.22
2018-02-06T10:20:35.151Z,88.36
2018-02-06T10:21:35.141Z,88.22
2018-02-06T10:22:34.867Z,88.26
2018-02-06T10:23:35.106Z,87.88
2018-02-06T10:24:35.091Z,87.41
2018-02-06T10:26:34.802Z,87.27
2018-02-06T10:27:35.038Z,87.18
2018-02-06T10:28:34.779Z,87.55
2018-02-06T10:29:35.008Z,87.93
2018-02-06T10:30:34.994Z,88.5
2018-02-06T10:31:34.979Z,88.26
2018-02-06T10:32:34.968Z,88.83
2018-02-06T10:33:34.945Z,88.88
2018-02-06T10:34:34.675Z,88.45
2018-02-06T10:35:34.912Z,88.36
2018-02-06T10:36:34.895Z,87.98
2018-02-06T10:37:34.881Z,87.32
2018-02-06T10:38:34.622Z,86.85
2018-02-06T10:39:34.848Z,85.71
2018-02-06T10:40:34.836Z,84.77
2018-02-06T10:41:34.815Z,85.05
2018-02-06T10:42:34.551Z,85.52
2018-02-06T10:43:34.790Z,85.14
2018-02-06T10:44:34.776Z,84.86
2018-02-06T10:45:34.770Z,84.95
2018-02-06T10:46:34.737Z,84.77
2018-02-06T10:47:34.720Z,85.14
2018-02-06T10:48:34.705Z,85.61
2018-02-06T10:49:34.693Z,85.9
2018-02-06T10:50:34.675Z,85.33
2018-02-06T10:51:34.664Z,85.33
2018-02-06T10:52:34.642Z,84.86
2018-02-06T10:53:34.649Z,84.77
2018-02-06T10:54:34.619Z,84.95
2018-02-06T10:55:34.604Z,85.24
2018-02-06T10:57:34.563Z,84.86
2018-02-06T10:58:49.212Z,84.77
2018-02-06T10:59:34.279Z,84.95
2018-02-06T11:00:34.263Z,84.2
2018-02-06T11:01:34.503Z,84.01
2018-02-06T11:02:34.525Z,84.58
2018-02-06T11:03:34.477Z,84.39
2018-02-06T11:04:34.454Z,84.1
2018-02-06T11:05:34.436Z,84.01
2018-02-06T11:06:34.419Z,83.72
2018-02-06T11:07:34.408Z,83.63
2018-02-06T11:08:34.394Z,83.44
2018-02-06T11:09:34.375Z,83.44
2018-02-06T11:10:34.359Z,83.53
2018-02-06T11:11:34.342Z,83.53
2018-02-06T11:12:34.363Z,83.44
2018-02-06T11:13:34.308Z,82.78
2018-02-06T11:14:34.303Z,82.78
2018-02-06T11:15:34.289Z,82.87
2018-02-06T11:16:34.262Z,83.15
2018-02-06T11:17:34.250Z,82.97
2018-02-06T11:18:34.233Z,83.82
2018-02-06T11:19:34.216Z,83.72
2018-02-06T11:20:34.200Z,83.91
2018-02-06T11:21:34.213Z,84.48
2018-02-06T11:22:34.190Z,84.29
2018-02-06T11:23:34.165Z,83.72
2018-02-06T11:24:34.137Z,82.78
2018-02-06T11:25:34.120Z,82.4
2018-02-06T11:26:34.105Z,82.97
2018-02-06T11:27:33.838Z,82.02
2018-02-06T11:28:34.074Z,81.36
2018-02-06T11:29:33.833Z,80.88
2018-02-06T11:30:34.061Z,80.69
2018-02-06T11:31:34.039Z,81.17
2018-02-06T11:32:34.014Z,80.88
2018-02-06T11:33:34.003Z,80.41
2018-02-06T11:34:33.981Z,80.6
2018-02-06T11:35:33.984Z,80.04
2018-02-06T11:36:33.957Z,80.22
2018-02-06T11:37:33.977Z,80.13
2018-02-06T11:38:33.667Z,79.66
2018-02-06T11:39:33.905Z,78.8
2018-02-06T11:40:33.894Z,78.9
2018-02-06T11:41:33.873Z,78.9
2018-02-06T11:42:33.862Z,78.9
2018-02-06T11:43:33.599Z,78.99
2018-02-06T11:44:33.836Z,78.8
2018-02-06T11:45:33.820Z,77.86
2018-02-06T11:46:33.804Z,77.95
2018-02-06T11:47:33.780Z,78.71
2018-02-06T11:48:33.767Z,78.14
2018-02-06T11:49:33.748Z,78.42
2018-02-06T11:50:33.737Z,77.39
2018-02-06T11:51:33.735Z,77.1
2018-02-06T11:52:33.727Z,76.53
2018-02-06T11:53:33.690Z,76.15
2018-02-06T11:54:33.671Z,76.44
2018-02-06T11:55:33.402Z,76.44
2018-02-06T11:56:33.392Z,76.72
2018-02-06T11:57:33.623Z,77.1
2018-02-06T11:58:33.619Z,76.34
2018-02-06T11:59:33.599Z,76.72
2018-02-06T12:00:33.577Z,77.1
2018-02-06T12:01:33.333Z,76.53
2018-02-06T12:02:33.576Z,77.01
2018-02-06T12:03:33.536Z,76.91
2018-02-06T12:04:33.540Z,76.91
2018-02-06T12:05:33.497Z,76.06
2018-02-06T12:06:33.481Z,75.4
2018-02-06T12:07:33.465Z,75.68
2018-02-06T12:08:33.478Z,75.02
2018-02-06T12:09:33.441Z,74.36
2018-02-06T12:10:33.420Z,75.12
2018-02-06T12:11:33.404Z,75.21
2018-02-06T12:12:33.138Z,74.74
2018-02-06T12:13:33.394Z,75.02
2018-02-06T12:14:33.362Z,75.31
2018-02-06T12:15:33.379Z,75.12
2018-02-06T12:16:33.329Z,74.74
2018-02-06T12:17:33.310Z,74.74
2018-02-06T12:18:47.959Z,74.74
2018-02-06T12:19:33.279Z,74.17
2018-02-06T12:20:33.264Z,73.32
2018-02-06T12:21:33.276Z,72.28
2018-02-06T12:22:33.234Z,72.56
2018-02-06T12:23:33.222Z,72.75
2018-02-06T12:24:33.208Z,72.66
2018-02-06T12:25:33.187Z,72.47
2018-02-06T12:26:33.169Z,72.28
2018-02-06T12:27:32.903Z,73.03
2018-02-06T12:28:33.139Z,72.28
2018-02-06T12:29:32.923Z,71.23
2018-02-06T12:30:32.857Z,70.76
2018-02-06T12:31:33.094Z,70.57
2018-02-06T12:32:33.079Z,71.04
2018-02-06T12:33:33.077Z,70.79
2018-02-06T12:34:33.050Z,70.89
2018-02-06T12:35:33.031Z,71.27
2018-02-06T12:36:32.763Z,71.52
2018-02-06T12:37:32.999Z,70.79
2018-02-06T12:38:32.984Z,71.36
2018-02-06T12:39:33.033Z,71.36
2018-02-06T12:40:32.960Z,70.98
2018-02-06T12:41:32.687Z,70.98
2018-02-06T12:42:32.669Z,70.7
2018-02-06T12:43:32.917Z,70.7
2018-02-06T12:44:32.894Z,70.42
2018-02-06T12:45:32.623Z,70.51
2018-02-06T12:46:32.869Z,70.61
2018-02-06T12:47:32.930Z,70.57
2018-02-06T12:48:32.582Z,70.57
2018-02-06T12:49:32.819Z,70.29
2018-02-06T12:50:32.799Z,70.48
2018-02-06T12:51:32.781Z,70.1
2018-02-06T12:52:32.766Z,69.63
2018-02-06T12:53:32.781Z,69.82
2018-02-06T12:54:32.749Z,69.82
2018-02-06T12:55:32.733Z,69.91
2018-02-06T12:56:32.724Z,70.39
2018-02-06T12:57:32.439Z,70.95
2018-02-06T12:58:32.673Z,70.57
2018-02-06T12:59:32.707Z,69.63
2018-02-06T13:00:32.648Z,69.72
2018-02-06T13:01:32.642Z,69.44
2018-02-06T13:02:32.625Z,69.25
2018-02-06T13:03:32.626Z,69.91
2018-02-06T13:04:32.579Z,69.63
2018-02-06T13:05:32.565Z,69.72
2018-02-06T13:06:32.558Z,69.91
2018-02-06T13:07:32.546Z,69.82
2018-02-06T13:08:32.516Z,70.57
2018-02-06T13:09:32.501Z,69.63
2018-02-06T13:10:32.485Z,69.25
2018-02-06T13:11:32.492Z,69.63
2018-02-06T13:12:32.455Z,69.44
2018-02-06T13:13:32.437Z,69.44
2018-02-06T13:14:32.425Z,69.53
2018-02-06T13:15:32.423Z,68.87
2018-02-06T13:16:32.392Z,68.96
2018-02-06T13:17:32.125Z,69.15
2018-02-06T13:18:32.109Z,69.06
2018-02-06T13:19:32.346Z,68.77
2018-02-06T13:20:32.338Z,68.59
2018-02-06T13:21:32.312Z,68.87
2018-02-06T13:22:32.332Z,69.34
2018-02-06T13:23:32.283Z,69.63
2018-02-06T13:24:32.021Z,69.44
2018-02-06T13:25:32.255Z,68.96
2018-02-06T13:26:32.246Z,68.49
2018-02-06T13:27:32.222Z,67.93
2018-02-06T13:28:31.959Z,67.83
2018-02-06T13:29:32.188Z,68.02
2018-02-06T13:30:32.173Z,67.55
2018-02-06T13:31:32.183Z,68.59
2018-02-06T13:32:32.159Z,68.96
2018-02-06T13:33:32.127Z,69.44
2018-02-06T13:34:32.114Z,69.72
2018-02-06T13:35:31.843Z,70.29
2018-02-06T13:36:32.080Z,69.72
2018-02-06T13:37:32.073Z,68.96
2018-02-06T13:38:31.796Z,68.02
2018-02-06T13:39:32.034Z,67.45
2018-02-06T13:40:32.017Z,67.45
2018-02-06T13:41:32.016Z,67.93
2018-02-06T13:42:31.985Z,67.64
2018-02-06T13:43:31.971Z,67.55
2018-02-06T13:44:31.956Z,67.45
2018-02-06T13:45:31.939Z,67.26
2018-02-06T13:46:31.922Z,65.94
2018-02-06T13:47:31.911Z,65.66
2018-02-06T13:48:31.892Z,65.66
2018-02-06T13:49:31.878Z,66.6
2018-02-06T13:50:31.859Z,65.66
2018-02-06T13:51:31.594Z,66.13
2018-02-06T13:52:31.846Z,65.75
2018-02-06T13:53:31.820Z,65.94
2018-02-06T13:54:31.798Z,65.56
2018-02-06T13:55:31.783Z,65.56
2018-02-06T13:56:31.768Z,65.28
2018-02-06T13:57:31.769Z,65.47
2018-02-06T13:58:31.483Z,65.47
2018-02-06T13:59:31.719Z,65.47
2018-02-06T14:00:32.193Z,65.09
2018-02-06T14:01:31.702Z,64.99
2018-02-06T14:02:31.693Z,64.99
2018-02-06T14:03:31.671Z,65.09
2018-02-06T14:04:31.692Z,64.9
2018-02-06T14:05:31.631Z,64.8
2018-02-06T14:06:31.612Z,65.18
2018-02-06T14:07:31.642Z,65.28
2018-02-06T14:08:31.643Z,64.8
2018-02-06T14:09:31.617Z,64.61
2018-02-06T14:10:31.560Z,63.67
2018-02-06T14:11:31.281Z,62.53
2018-02-06T14:12:31.264Z,62.25
2018-02-06T14:13:31.501Z,62.15
2018-02-06T14:14:31.484Z,61.87
2018-02-06T14:15:31.470Z,61.87
2018-02-06T14:16:31.457Z,62.06
2018-02-06T14:17:31.439Z,61.4
2018-02-06T14:18:31.169Z,61.77
2018-02-06T14:19:31.416Z,61.58
2018-02-06T14:20:31.392Z,61.87
2018-02-06T14:21:31.377Z,61.77
2018-02-06T14:22:31.360Z,61.77
2018-02-06T14:23:31.342Z,61.96
2018-02-06T14:24:31.330Z,62.15
2018-02-06T14:25:31.314Z,62.25
2018-02-06T14:26:31.299Z,62.06
2018-02-06T14:27:31.293Z,62.53
2018-02-06T14:28:31.277Z,62.53
2018-02-06T14:29:31.262Z,62.82
2018-02-06T14:30:31.231Z,63.48
2018-02-06T14:31:31.217Z,63.29
2018-02-06T14:32:31.201Z,63.85
2018-02-06T14:33:31.186Z,64.52
2018-02-06T14:34:31.167Z,64.52
2018-02-06T14:35:31.152Z,64.99
2018-02-06T14:36:31.161Z,65.18
2018-02-06T14:37:30.873Z,64.33
2018-02-06T14:38:31.108Z,64.14
2018-02-06T14:39:31.091Z,63.48
2018-02-06T14:40:31.101Z,63.57
2018-02-06T14:41:31.060Z,63.57
2018-02-06T14:42:30.790Z,63.76
2018-02-06T14:43:31.033Z,63.67
2018-02-06T14:44:31.017Z,63.2
2018-02-06T14:45:31.002Z,62.72
2018-02-06T14:46:31.009Z,62.72
2018-02-06T14:47:30.966Z,62.72
2018-02-06T14:48:30.954Z,62.25
2018-02-06T14:49:30.941Z,61.87
2018-02-06T14:50:30.919Z,62.44
2018-02-06T14:51:30.653Z,61.77
2018-02-06T14:52:30.887Z,61.4
2018-02-06T14:53:30.869Z,60.74
2018-02-06T14:54:30.850Z,61.21
2018-02-06T14:55:30.855Z,61.68
2018-02-06T14:56:30.568Z,61.11
2018-02-06T14:57:30.803Z,60.83
2018-02-06T14:58:30.790Z,61.11